This is the latest recevied weather packets stored in our database for station/object WC4PEM-12. If no packets are shown the sender has not sent any weather packets the latest 10 day(s).
| Time | Temp. | Humidity | Pressure | Rain* | Wind** | Luminosity | Snow |
|---|---|---|---|---|---|---|---|
| 1777477094 | 27.78° C | 58% | 1017.3 hPa | 0 mm | - | - | - |
| 1777477008 | 27.78° C | 58% | 1017.4 hPa | 0 mm | - | - | - |
| 1777476794 | 27.78° C | 58% | 1017.4 hPa | 0 mm | - | - | - |
| 1777476628 | 27.78° C | 64% | 1017.8 hPa | 0 mm | - | - | - |
| 1777476626 | 27.78° C | 63% | 1017.5 hPa | 0 mm | - | - | - |
| 1777476494 | 27.78° C | 63% | 1017.5 hPa | 0 mm | - | - | - |
| 1777476367 | 27.78° C | 61% | 1017.6 hPa | 0 mm | - | - | - |
| 1777476332 | 27.78° C | 61% | 1017.6 hPa | 0 mm | - | - | - |
| 1777476194 | 27.78° C | 61% | 1017.6 hPa | 0 mm | - | - | - |
| 1777475894 | 28.33° C | 61% | 1017.7 hPa | 0 mm | - | - | - |
| 1777475790 | 27.78° C | 64% | 1017.8 hPa | 0 mm | - | - | - |
| 1777475594 | 27.78° C | 64% | 1017.8 hPa | 0 mm | - | - | - |
| 1777475294 | 27.78° C | 64% | 1017.8 hPa | 0 mm | - | - | - |
| 1777474994 | 27.78° C | 63% | 1017.6 hPa | 0 mm | - | - | - |
| 1777474694 | 27.78° C | 65% | 1017.7 hPa | 0 mm | - | - | - |
| 1777474589 | 27.78° C | 68% | 1017.7 hPa | 0 mm | - | - | - |
| 1777474394 | 27.78° C | 68% | 1017.7 hPa | 0 mm | - | - | - |
| 1777474094 | 27.78° C | 66% | 1017.5 hPa | 0 mm | - | - | - |
| 1777473973 | 27.78° C | 68% | 1017.5 hPa | 0 mm | - | - | - |
| 1777473794 | 27.78° C | 68% | 1017.5 hPa | 0 mm | - | - | - |
| 1777473655 | 27.22° C | 70% | 1017.6 hPa | 0 mm | - | - | - |
| 1777473494 | 27.22° C | 70% | 1017.6 hPa | 0 mm | - | - | - |
| 1777473194 | 27.22° C | 71% | 1017.8 hPa | 0 mm | - | - | - |
| 1777473032 | 26.67° C | 71% | 1018.1 hPa | 0 mm | - | - | - |
| 1777472894 | 26.67° C | 71% | 1018.1 hPa | 0 mm | - | - | - |
* Rain latest hour (hover to see other rain measurements)
** Current wind speed in m/s (hover to see current wind gust speed)